Time;durP1;ratioP1;P1;durP2;ratioP2;P2;SDS_P1;SDS_P2;PMS_P1;PMS_P2;Temp;Humidity;BMP_temperature;BMP_pressure;BME280_temperature;BME280_humidity;BME280_pressure;Samples;Min_cycle;Max_cycle;Signal;HPM_P1;HPM_P2
2021/09/24 00:01:54;;;;;;;6.15;4.95;;;13.80;71.30;;;;;;5052975;28;20233;-64
2021/09/24 00:04:27;;;;;;;5.00;4.22;;;13.70;71.30;;;;;;5038259;28;20677;-64
2021/09/24 00:06:57;;;;;;;6.07;5.03;;;13.70;71.10;;;;;;5032545;28;20191;-64
2021/09/24 00:09:25;;;;;;;7.28;5.40;;;13.70;71.10;;;;;;5032263;28;20183;-63
2021/09/24 00:11:52;;;;;;;7.03;4.97;;;13.60;70.80;;;;;;5032522;28;20282;-64
2021/09/24 00:14:22;;;;;;;9.10;5.32;;;13.60;70.90;;;;;;5044698;28;20281;-64
2021/09/24 00:16:49;;;;;;;7.10;4.80;;;13.50;70.30;;;;;;5052481;28;20281;-64
2021/09/24 00:19:25;;;;;;;5.65;4.13;;;13.50;70.50;;;;;;5040484;28;20218;-63
2021/09/24 00:21:53;;;;;;;8.27;5.00;;;13.40;70.50;;;;;;5051685;28;20236;-64
2021/09/24 00:24:20;;;;;;;4.82;4.05;;;13.40;70.90;;;;;;5051877;28;20273;-64
2021/09/24 00:26:52;;;;;;;5.15;4.25;;;13.30;70.70;;;;;;5052623;28;20224;-64
2021/09/24 00:29:20;;;;;;;4.72;4.05;;;13.30;70.80;;;;;;5052180;28;20277;-64
2021/09/24 00:31:47;;;;;;;5.60;4.50;;;13.20;71.30;;;;;;5048157;28;20202;-64
2021/09/24 00:34:14;;;;;;;6.03;4.30;;;13.20;71.80;;;;;;5032734;28;20246;-63
2021/09/24 00:36:46;;;;;;;6.32;5.03;;;13.20;71.90;;;;;;5031640;28;20836;-64
2021/09/24 00:39:13;;;;;;;5.78;4.35;;;13.20;72.30;;;;;;5032274;28;20222;-63
2021/09/24 00:41:40;;;;;;;6.53;5.00;;;13.30;72.20;;;;;;5037304;28;20281;-64
2021/09/24 00:44:09;;;;;;;6.45;4.80;;;13.20;71.50;;;;;;5043457;28;20301;-63
2021/09/24 00:46:38;;;;;;;8.75;4.75;;;13.30;71.80;;;;;;5035796;28;20281;-64
2021/09/24 00:49:08;;;;;;;6.97;4.47;;;13.20;71.00;;;;;;5052306;28;20613;-64
2021/09/24 00:51:34;;;;;;;6.50;5.32;;;13.20;71.10;;;;;;5051545;28;20269;-63
2021/09/24 00:54:03;;;;;;;4.10;3.47;;;13.20;71.90;;;;;;5052092;28;20663;-63
2021/09/24 00:56:36;;;;;;;5.63;3.88;;;13.10;71.70;;;;;;5038514;28;20278;-64
2021/09/24 00:59:03;;;;;;;5.32;4.57;;;13.10;71.60;;;;;;5032180;28;20277;-63
2021/09/24 01:01:31;;;;;;;4.93;3.15;;;13.10;72.10;;;;;;5031789;28;20615;-64
2021/09/24 01:03:59;;;;;;;5.85;3.63;;;13.10;72.70;;;;;;5032191;28;20329;-65
2021/09/24 01:06:26;;;;;;;5.88;3.75;;;13.00;73.70;;;;;;5031821;28;20212;-64
2021/09/24 01:08:54;;;;;;;9.05;4.72;;;13.00;73.80;;;;;;5031751;28;20290;-64
2021/09/24 01:11:25;;;;;;;6.72;4.70;;;13.00;73.70;;;;;;5041022;28;20223;-65
2021/09/24 01:13:52;;;;;;;8.02;4.90;;;13.10;73.90;;;;;;5052199;28;20226;-64
2021/09/24 01:16:20;;;;;;;7.43;4.35;;;13.10;73.70;;;;;;5042303;28;20191;-64
2021/09/24 01:18:48;;;;;;;5.10;4.05;;;13.10;73.80;;;;;;5033089;28;20661;-64
2021/09/24 01:21:17;;;;;;;5.25;4.35;;;13.10;74.30;;;;;;5051794;28;20309;-64
2021/09/24 01:23:44;;;;;;;4.82;3.67;;;13.10;73.10;;;;;;5051056;28;20222;-64
2021/09/24 01:26:15;;;;;;;5.95;4.35;;;13.10;72.20;;;;;;5051720;28;20280;-64
2021/09/24 01:28:44;;;;;;;5.00;3.65;;;13.00;72.00;;;;;;5043026;28;20193;-63
2021/09/24 01:31:11;;;;;;;5.75;4.18;;;13.00;72.20;;;;;;5031766;28;20279;-63
2021/09/24 01:33:44;;;;;;;4.50;3.47;;;12.90;73.00;;;;;;5031608;28;20273;-63
2021/09/24 01:36:11;;;;;;;5.60;3.97;;;12.80;73.20;;;;;;5044682;28;20194;-63
2021/09/24 01:38:40;;;;;;;5.80;3.90;;;12.80;73.70;;;;;;5051617;28;20195;-64
2021/09/24 01:41:07;;;;;;;6.60;3.75;;;12.80;74.10;;;;;;5037812;28;20191;-63
2021/09/24 01:43:35;;;;;;;8.88;4.18;;;12.70;74.40;;;;;;5033484;28;20843;-63
2021/09/24 01:46:04;;;;;;;5.03;3.42;;;12.70;74.60;;;;;;5034762;28;20230;-63
2021/09/24 01:48:31;;;;;;;7.32;3.28;;;12.70;74.40;;;;;;5035272;28;20191;-64
2021/09/24 01:50:58;;;;;;;4.45;3.45;;;12.60;75.00;;;;;;5034841;28;20209;-64
2021/09/24 01:53:27;;;;;;;6.22;4.05;;;12.70;75.10;;;;;;5034863;28;20194;-64
2021/09/24 01:55:55;;;;;;;4.70;3.17;;;12.60;73.70;;;;;;5035009;28;20278;-63
2021/09/24 01:58:23;;;;;;;7.55;4.00;;;12.60;74.10;;;;;;5035113;28;20191;-64
2021/09/24 02:00:50;;;;;;;4.72;3.38;;;12.60;74.30;;;;;;5053673;28;20198;-63
2021/09/24 02:03:19;;;;;;;4.70;3.30;;;12.60;74.30;;;;;;5049513;28;20305;-63
2021/09/24 02:05:46;;;;;;;4.60;3.30;;;12.60;74.30;;;;;;5034907;28;20297;-63
2021/09/24 02:08:13;;;;;;;4.57;3.53;;;12.60;74.80;;;;;;5035887;28;20213;-63
2021/09/24 02:10:40;;;;;;;5.78;3.70;;;12.50;74.60;;;;;;5054728;28;20653;-64
2021/09/24 02:13:08;;;;;;;4.43;3.13;;;12.50;73.80;;;;;;5054230;28;20190;-63
2021/09/24 02:15:35;;;;;;;5.70;3.80;;;12.40;74.60;;;;;;5054557;28;20285;-64
2021/09/24 02:18:02;;;;;;;3.92;2.90;;;12.30;75.60;;;;;;5054031;28;20289;-63
2021/09/24 02:20:29;;;;;;;3.50;2.88;;;12.30;75.90;;;;;;5054262;28;20688;-63
2021/09/24 02:23:01;;;;;;;14.02;9.18;;;12.30;76.20;;;;;;5048194;28;20218;-64
2021/09/24 02:25:28;;;;;;;4.78;3.83;;;12.30;76.00;;;;;;5034111;28;20245;-63
2021/09/24 02:28:00;;;;;;;5.97;3.50;;;12.30;75.80;;;;;;5041515;28;20238;-63
2021/09/24 02:30:29;;;;;;;4.97;3.30;;;12.30;75.80;;;;;;5054381;28;20281;-63
2021/09/24 02:32:56;;;;;;;3.75;2.90;;;12.30;76.30;;;;;;5053997;28;20317;-63
2021/09/24 02:35:23;;;;;;;5.07;3.38;;;12.30;75.80;;;;;;5054201;28;20195;-64
2021/09/24 02:37:50;;;;;;;3.15;2.58;;;12.30;75.70;;;;;;5037903;28;20187;-63
2021/09/24 02:40:19;;;;;;;4.93;3.40;;;12.30;75.20;;;;;;5034339;28;20234;-64
2021/09/24 02:42:46;;;;;;;4.57;3.67;;;12.20;75.70;;;;;;5033804;28;20190;-63
2021/09/24 02:45:13;;;;;;;5.68;3.25;;;12.20;77.50;;;;;;5045350;28;20217;-63
2021/09/24 02:47:41;;;;;;;6.07;3.80;;;12.20;78.00;;;;;;5054047;28;20194;-63
2021/09/24 02:50:11;;;;;;;4.63;3.30;;;12.30;78.30;;;;;;5053553;28;20197;-63
2021/09/24 02:52:38;;;;;;;4.30;3.40;;;12.30;77.20;;;;;;5048107;28;20230;-63
2021/09/24 02:55:06;;;;;;;6.20;3.50;;;12.20;78.10;;;;;;5032782;28;20557;-63
2021/09/24 02:57:33;;;;;;;6.38;4.93;;;12.20;78.40;;;;;;5037124;28;20189;-64
2021/09/24 03:00:01;;;;;;;6.30;4.20;;;12.20;78.00;;;;;;5053889;28;20269;-63
2021/09/24 03:02:28;;;;;;;10.82;4.80;;;12.20;78.80;;;;;;5050580;28;20178;-64
2021/09/24 03:04:56;;;;;;;4.55;3.40;;;12.20;79.20;;;;;;5053700;28;20225;-64
2021/09/24 03:07:23;;;;;;;6.22;3.88;;;12.10;80.90;;;;;;5049079;28;20274;-63
2021/09/24 03:09:50;;;;;;;5.00;4.05;;;12.10;81.00;;;;;;5033808;28;20728;-63
2021/09/24 03:12:17;;;;;;;4.93;3.65;;;12.10;81.10;;;;;;5034997;28;20277;-63
2021/09/24 03:14:44;;;;;;;5.70;3.38;;;12.20;82.00;;;;;;5053523;28;20191;-63
2021/09/24 03:17:11;;;;;;;5.20;3.72;;;12.20;81.60;;;;;;5051553;28;20289;-63
2021/09/24 03:19:38;;;;;;;7.28;3.70;;;12.20;81.80;;;;;;5033340;28;20306;-63
2021/09/24 03:22:07;;;;;;;5.60;4.40;;;12.20;81.90;;;;;;5034646;28;20266;-64
2021/09/24 03:24:34;;;;;;;5.00;3.63;;;12.10;81.40;;;;;;5033594;28;20337;-63
2021/09/24 03:27:01;;;;;;;4.75;3.22;;;12.10;81.90;;;;;;5035134;28;20297;-63
2021/09/24 03:29:34;;;;;;;6.93;4.03;;;12.00;82.80;;;;;;5053362;28;20569;-64
2021/09/24 03:32:01;;;;;;;4.45;3.35;;;12.10;82.40;;;;;;5050572;28;20190;-64
2021/09/24 03:34:28;;;;;;;5.30;4.10;;;12.10;82.40;;;;;;5033306;28;20277;-63
2021/09/24 03:37:00;;;;;;;9.18;4.25;;;12.10;82.40;;;;;;5032997;28;20197;-64
2021/09/24 03:39:29;;;;;;;6.53;3.40;;;12.10;82.30;;;;;;5053184;28;20194;-63
2021/09/24 03:41:56;;;;;;;5.22;3.38;;;12.10;81.80;;;;;;5052543;28;20281;-69
2021/09/24 03:44:24;;;;;;;4.30;3.22;;;12.20;81.40;;;;;;5052898;28;20226;-64
2021/09/24 03:46:51;;;;;;;4.65;3.47;;;12.10;81.00;;;;;;5052991;28;20198;-62
2021/09/24 03:49:19;;;;;;;4.25;3.08;;;12.00;81.30;;;;;;5033332;28;20191;-63
2021/09/24 03:51:46;;;;;;;4.93;3.75;;;12.00;81.60;;;;;;5032999;28;20290;-63
2021/09/24 03:54:13;;;;;;;4.00;3.20;;;11.90;81.80;;;;;;5049843;28;20276;-63
2021/09/24 03:56:43;;;;;;;4.40;3.70;;;11.90;81.70;;;;;;5052761;28;20281;-63
2021/09/24 03:59:10;;;;;;;4.10;3.22;;;11.90;81.90;;;;;;5035541;28;20187;-63
2021/09/24 04:01:39;;;;;;;3.85;3.20;;;11.80;81.80;;;;;;5032773;28;20202;-63
2021/09/24 04:04:06;;;;;;;5.75;3.10;;;11.80;82.00;;;;;;5047605;28;20212;-64
2021/09/24 04:06:38;;;;;;;6.72;3.50;;;11.80;82.00;;;;;;5052710;28;20280;-64
2021/09/24 04:09:05;;;;;;;4.63;3.40;;;11.90;81.60;;;;;;5037733;28;20649;-63
2021/09/24 04:11:32;;;;;;;4.10;2.50;;;11.80;81.20;;;;;;5032545;28;20286;-65
2021/09/24 04:14:00;;;;;;;4.47;2.92;;;11.80;81.30;;;;;;5045222;28;20606;-65
2021/09/24 04:16:27;;;;;;;5.60;2.80;;;11.90;81.30;;;;;;5052637;28;20282;-64
2021/09/24 04:18:55;;;;;;;4.68;3.55;;;11.90;81.50;;;;;;5040703;28;20271;-64
2021/09/24 04:21:25;;;;;;;5.20;2.97;;;11.90;81.60;;;;;;5033051;28;20191;-65
2021/09/24 04:23:53;;;;;;;2.90;2.35;;;12.00;82.50;;;;;;5042643;28;20301;-65
2021/09/24 04:26:20;;;;;;;4.20;3.60;;;11.90;82.30;;;;;;5052729;28;20190;-64
2021/09/24 04:28:52;;;;;;;6.35;3.90;;;12.00;82.60;;;;;;5042736;28;20222;-64
2021/09/24 04:31:20;;;;;;;5.30;3.60;;;12.00;82.10;;;;;;5032744;28;20285;-64
2021/09/24 04:33:52;;;;;;;5.15;3.17;;;11.90;81.90;;;;;;5032394;28;20197;-65
2021/09/24 04:36:19;;;;;;;8.32;4.25;;;11.80;81.80;;;;;;5032812;28;20205;-64
2021/09/24 04:38:47;;;;;;;5.65;3.70;;;11.70;81.60;;;;;;5039023;28;20663;-64
2021/09/24 04:41:14;;;;;;;5.38;3.72;;;11.70;82.40;;;;;;5052427;28;20579;-64
2021/09/24 04:43:41;;;;;;;4.35;3.30;;;11.60;82.50;;;;;;5049967;28;20305;-64
2021/09/24 04:46:08;;;;;;;6.10;3.15;;;11.50;82.80;;;;;;5052817;28;20190;-64
2021/09/24 04:48:37;;;;;;;6.22;3.05;;;11.50;83.20;;;;;;5047551;28;20179;-64
2021/09/24 04:51:04;;;;;;;6.00;3.65;;;11.50;84.50;;;;;;5032611;28;20234;-64
2021/09/24 04:53:31;;;;;;;6.50;4.00;;;11.40;84.50;;;;;;5038539;28;20265;-64
2021/09/24 04:55:58;;;;;;;8.77;4.60;;;11.40;85.20;;;;;;5052838;28;20277;-64
2021/09/24 04:58:25;;;;;;;4.80;3.50;;;11.30;86.00;;;;;;5049281;28;20270;-65
2021/09/24 05:00:54;;;;;;;4.72;3.55;;;11.20;86.20;;;;;;5052510;28;20277;-64
2021/09/24 05:03:21;;;;;;;4.88;3.40;;;11.20;86.70;;;;;;5044387;28;20270;-65
2021/09/24 05:05:49;;;;;;;4.85;3.83;;;11.20;86.90;;;;;;5050799;28;20273;-64
2021/09/24 05:08:21;;;;;;;4.97;3.92;;;11.30;86.90;;;;;;5045016;28;20187;-64
2021/09/24 05:10:48;;;;;;;5.00;3.50;;;11.40;86.60;;;;;;5031947;28;20187;-64
2021/09/24 05:13:17;;;;;;;4.60;3.10;;;11.40;86.00;;;;;;5037060;28;20223;-64
2021/09/24 05:15:44;;;;;;;6.60;5.07;;;11.40;85.30;;;;;;5052599;28;20237;-64
2021/09/24 05:18:11;;;;;;;7.65;4.85;;;11.40;84.70;;;;;;5048730;28;20222;-64
2021/09/24 05:20:39;;;;;;;6.03;4.78;;;11.40;83.90;;;;;;5035417;28;20250;-64
2021/09/24 05:23:07;;;;;;;5.40;3.70;;;11.40;83.30;;;;;;5037863;28;20274;-64
2021/09/24 05:25:45;;;;;;;7.80;4.82;;;11.40;83.30;;;;;;5055877;28;20574;-64
2021/09/24 05:28:12;;;;;;;5.05;3.78;;;11.40;84.00;;;;;;5052704;28;20679;-64
2021/09/24 05:30:39;;;;;;;6.43;3.90;;;11.40;84.80;;;;;;5055864;28;20190;-65
2021/09/24 05:33:12;;;;;;;7.07;3.90;;;11.50;84.90;;;;;;5036944;28;20227;-65
2021/09/24 05:35:39;;;;;;;8.25;4.80;;;11.50;84.50;;;;;;5041919;28;20234;-64
2021/09/24 05:38:08;;;;;;;7.50;4.38;;;11.50;84.50;;;;;;5052711;28;20244;-65
2021/09/24 05:40:37;;;;;;;8.50;4.35;;;11.60;85.30;;;;;;5039668;28;20237;-64
2021/09/24 05:43:04;;;;;;;5.10;4.35;;;11.60;85.40;;;;;;5034926;28;20214;-64
2021/09/24 05:45:32;;;;;;;5.93;4.43;;;11.70;85.10;;;;;;5034976;28;20218;-65
2021/09/24 05:47:59;;;;;;;6.22;4.57;;;11.80;85.60;;;;;;5034797;28;20187;-65
2021/09/24 05:50:27;;;;;;;5.70;4.07;;;11.90;85.70;;;;;;5034807;28;20195;-65
2021/09/24 05:53:02;;;;;;;5.68;3.70;;;12.00;85.60;;;;;;5048566;28;20190;-64
2021/09/24 05:55:31;;;;;;;14.48;8.43;;;12.10;85.80;;;;;;5052236;28;20636;-64
2021/09/24 05:57:58;;;;;;;9.90;5.75;;;12.20;86.00;;;;;;5051381;28;20560;-65
2021/09/24 06:00:31;;;;;;;5.97;4.10;;;12.20;86.00;;;;;;5052417;28;20191;-64
2021/09/24 06:03:01;;;;;;;6.05;3.95;;;12.40;86.30;;;;;;5052224;28;20194;-65
2021/09/24 06:05:40;;;;;;;5.93;4.05;;;12.50;86.10;;;;;;5034284;28;20273;-65
2021/09/24 06:08:07;;;;;;;7.32;5.15;;;12.60;85.70;;;;;;5034369;28;20613;-65
2021/09/24 06:10:38;;;;;;;8.75;4.80;;;12.70;85.00;;;;;;5040826;28;20205;-65
2021/09/24 06:13:05;;;;;;;5.78;4.40;;;12.80;85.00;;;;;;5034020;28;20195;-64
2021/09/24 06:15:33;;;;;;;7.15;5.82;;;12.90;84.90;;;;;;5038293;28;20317;-63
2021/09/24 06:18:00;;;;;;;13.65;4.50;;;13.00;85.00;;;;;;5033986;28;20198;-65
2021/09/24 06:20:27;;;;;;;5.47;3.20;;;13.10;85.00;;;;;;5034239;28;20274;-65
2021/09/24 06:22:54;;;;;;;7.00;3.80;;;13.20;84.70;;;;;;5034162;28;20194;-65
2021/09/24 06:25:22;;;;;;;6.53;4.22;;;13.40;83.10;;;;;;5034191;28;20277;-65
2021/09/24 06:27:51;;;;;;;8.65;4.88;;;13.50;82.60;;;;;;5036598;28;20524;-67
2021/09/24 06:30:20;;;;;;;5.82;4.10;;;13.60;82.80;;;;;;5033754;28;20249;-65
2021/09/24 06:32:48;;;;;;;10.77;5.30;;;13.70;83.30;;;;;;5033363;28;20248;-64
2021/09/24 06:35:16;;;;;;;5.95;4.55;;;13.90;83.30;;;;;;5035976;28;20222;-64
2021/09/24 06:37:44;;;;;;;6.50;3.95;;;14.00;82.80;;;;;;5041664;28;20233;-65
2021/09/24 06:40:12;;;;;;;5.95;3.38;;;14.20;81.50;;;;;;5033653;28;20218;-64
2021/09/24 06:42:40;;;;;;;6.07;3.33;;;14.30;78.90;;;;;;5033551;28;20191;-65
2021/09/24 06:45:11;;;;;;;4.78;3.17;;;14.50;79.00;;;;;;5033169;28;20685;-65
2021/09/24 06:47:38;;;;;;;6.00;3.22;;;14.70;79.00;;;;;;5033423;28;20195;-64
2021/09/24 06:50:07;;;;;;;5.13;3.63;;;14.90;78.10;;;;;;5033664;28;20245;-69
2021/09/24 06:52:34;;;;;;;6.97;3.42;;;15.00;77.90;;;;;;5048476;28;20896;-65
2021/09/24 06:55:01;;;;;;;3.80;2.77;;;15.10;78.30;;;;;;5034066;28;20199;-65
2021/09/24 06:57:33;;;;;;;13.10;3.10;;;15.20;77.60;;;;;;5034131;28;20512;-65
2021/09/24 07:00:00;;;;;;;4.70;2.50;;;15.40;77.30;;;;;;5034009;28;20533;-65
2021/09/24 07:02:28;;;;;;;4.50;2.50;;;15.50;76.00;;;;;;5033964;28;20456;-65
2021/09/24 07:04:59;;;;;;;10.95;2.33;;;15.70;73.80;;;;;;5033861;28;21056;-66
2021/09/24 07:07:26;;;;;;;6.03;2.70;;;15.80;74.50;;;;;;5033863;28;20241;-65
2021/09/24 07:09:56;;;;;;;6.43;2.67;;;15.90;73.70;;;;;;5033700;28;20784;-65
2021/09/24 07:12:23;;;;;;;4.37;2.43;;;16.00;72.40;;;;;;5033569;28;20843;-65
2021/09/24 07:14:50;;;;;;;5.43;2.40;;;16.00;72.50;;;;;;5033779;28;20568;-65
2021/09/24 07:17:19;;;;;;;5.93;2.87;;;16.10;72.00;;;;;;5033650;28;20536;-65
2021/09/24 07:19:47;;;;;;;5.33;3.07;;;16.10;72.40;;;;;;5050584;28;21007;-65
2021/09/24 07:22:19;;;;;;;6.57;2.30;;;16.20;73.10;;;;;;5051257;28;20528;-64
2021/09/24 07:24:48;;;;;;;7.87;2.60;;;16.20;73.00;;;;;;5050869;28;20798;-64
2021/09/24 07:27:15;;;;;;;4.57;3.00;;;16.30;72.40;;;;;;5052935;28;20475;-65
2021/09/24 07:29:42;;;;;;;5.43;3.00;;;16.40;72.40;;;;;;5053201;28;20445;-65
2021/09/24 07:32:09;;;;;;;5.43;2.50;;;16.50;72.00;;;;;;5052690;28;20527;-65
2021/09/24 07:34:39;;;;;;;8.77;3.00;;;16.60;72.60;;;;;;5053128;28;20480;-64
2021/09/24 07:37:07;;;;;;;5.97;3.50;;;16.70;72.10;;;;;;5052387;28;20961;-65
2021/09/24 07:39:34;;;;;;;7.27;4.77;;;16.80;71.60;;;;;;5052753;28;20527;-64
2021/09/24 07:42:01;;;;;;;4.97;3.40;;;16.90;71.60;;;;;;5052211;28;20447;-64
2021/09/24 07:44:30;;;;;;;6.77;3.30;;;17.00;71.70;;;;;;5052606;28;20480;-65
2021/09/24 07:46:57;;;;;;;8.63;3.20;;;17.10;72.00;;;;;;5052637;28;20433;-65
2021/09/24 07:49:29;;;;;;;6.80;2.77;;;17.30;72.20;;;;;;5052492;28;20437;-65
2021/09/24 07:51:56;;;;;;;5.40;3.00;;;17.40;72.00;;;;;;5052669;28;20521;-65
2021/09/24 07:54:26;;;;;;;5.23;3.13;;;17.70;73.50;;;;;;5052575;28;20508;-65
2021/09/24 07:56:54;;;;;;;6.10;3.77;;;19.20;78.60;;;;;;5052633;28;20441;-65
2021/09/24 07:59:21;;;;;;;4.50;3.17;;;22.20;70.30;;;;;;5052410;28;20528;-65
2021/09/24 08:01:48;;;;;;;4.50;3.40;;;25.50;59.30;;;;;;5052187;28;20528;-65
2021/09/24 08:04:15;;;;;;;6.20;3.87;;;28.20;50.00;;;;;;5052192;28;20542;-66
2021/09/24 08:06:42;;;;;;;6.03;2.90;;;30.30;40.10;;;;;;5052533;28;21002;-65
2021/09/24 08:09:09;;;;;;;5.47;3.47;;;31.80;40.10;;;;;;5052410;28;21000;-65
2021/09/24 08:11:37;;;;;;;6.00;3.30;;;32.40;34.70;;;;;;5052143;28;20797;-66
2021/09/24 08:14:04;;;;;;;6.40;3.93;;;32.60;31.60;;;;;;5052286;28;20440;-65
2021/09/24 08:16:32;;;;;;;7.10;3.90;;;32.20;31.30;;;;;;5052544;28;20519;-65
2021/09/24 08:18:59;;;;;;;7.63;3.70;;;32.00;32.20;;;;;;5052015;28;20437;-66
2021/09/24 08:21:26;;;;;;;4.53;3.87;;;32.20;31.60;;;;;;5032550;28;20446;-67
2021/09/24 08:23:54;;;;;;;5.33;3.87;;;32.10;30.30;;;;;;5032616;28;20859;-66
2021/09/24 08:26:22;;;;;;;5.13;4.37;;;32.00;31.10;;;;;;5032594;28;20828;-65
2021/09/24 08:28:51;;;;;;;10.00;4.37;;;32.00;30.30;;;;;;5032151;28;20958;-65
2021/09/24 08:31:18;;;;;;;7.03;4.57;;;31.20;30.60;;;;;;5032189;28;20878;-65
2021/09/24 08:33:46;;;;;;;7.13;5.20;;;30.50;32.00;;;;;;5032188;28;20529;-66
2021/09/24 08:36:14;;;;;;;5.93;5.33;;;30.00;32.90;;;;;;5032260;28;20441;-65
2021/09/24 08:38:41;;;;;;;6.77;5.17;;;29.50;33.30;;;;;;5032227;28;20532;-65
2021/09/24 08:41:17;;;;;;;5.87;4.83;;;28.90;33.30;;;;;;5032792;28;20465;-65
2021/09/24 08:43:50;;;;;;;7.27;6.17;;;28.00;34.50;;;;;;5032972;28;20437;-65
2021/09/24 08:46:17;;;;;;;5.87;5.37;;;27.30;36.00;;;;;;5032380;28;20484;-65
2021/09/24 08:48:45;;;;;;;6.93;5.33;;;27.30;38.40;;;;;;5032813;28;20480;-65
2021/09/24 08:51:13;;;;;;;8.30;5.70;;;27.60;37.30;;;;;;5032783;28;20505;-64
2021/09/24 08:53:40;;;;;;;7.30;6.30;;;27.50;37.10;;;;;;5036346;28;20442;-65
2021/09/24 08:56:07;;;;;;;9.43;5.47;;;27.00;37.50;;;;;;5036349;28;20533;-65
2021/09/24 08:58:37;;;;;;;9.47;6.20;;;26.60;38.70;;;;;;5036649;28;20455;-65
2021/09/24 09:01:05;;;;;;;8.00;6.03;;;26.50;41.10;;;;;;5037033;28;20536;-65
2021/09/24 09:03:41;;;;;;;8.83;5.70;;;26.70;39.10;;;;;;5036708;28;20521;-66
2021/09/24 09:06:09;;;;;;;6.80;5.80;;;26.90;40.70;;;;;;5036155;28;20567;-65
2021/09/24 09:08:36;;;;;;;7.63;5.60;;;29.00;41.60;;;;;;5036580;28;20995;-65
2021/09/24 09:11:06;;;;;;;6.33;5.73;;;32.20;36.80;;;;;;5036714;28;20524;-65
2021/09/24 09:13:37;;;;;;;8.93;6.63;;;34.70;31.10;;;;;;5036584;28;20435;-65
2021/09/24 09:16:09;;;;;;;7.90;6.50;;;37.30;27.50;;;;;;5036583;28;20441;-67
2021/09/24 09:18:38;;;;;;;6.90;6.20;;;38.40;27.30;;;;;;5036556;28;20481;-66
2021/09/24 09:21:11;;;;;;;6.30;5.60;;;41.00;24.10;;;;;;5035918;28;20560;-66
2021/09/24 09:23:41;;;;;;;7.07;6.07;;;41.40;21.70;;;;;;5036045;28;20441;-66
2021/09/24 09:26:12;;;;;;;6.57;5.87;;;42.20;21.10;;;;;;5036166;28;20483;-66
2021/09/24 09:28:41;;;;;;;8.20;5.40;;;44.00;18.90;;;;;;5035740;28;20433;-66
2021/09/24 09:31:23;;;;;;;7.30;6.00;;;43.10;19.30;;;;;;5036129;28;20942;-66
2021/09/24 09:33:51;;;;;;;8.13;5.63;;;43.50;19.20;;;;;;5036530;28;20495;-66
2021/09/24 09:36:25;;;;;;;9.10;5.23;;;44.10;18.40;;;;;;5036436;28;20524;-65
2021/09/24 09:38:53;;;;;;;5.90;5.30;;;45.30;17.70;;;;;;5035987;28;20516;-67
2021/09/24 09:41:20;;;;;;;8.50;5.60;;;45.20;17.60;;;;;;5035915;28;20927;-65
2021/09/24 09:43:49;;;;;;;8.73;6.83;;;45.60;17.50;;;;;;5035882;28;20445;-65
2021/09/24 09:46:21;;;;;;;7.67;5.53;;;46.10;16.80;;;;;;5035847;28;20571;-66
2021/09/24 09:49:05;;;;;;;6.40;5.80;;;47.00;16.40;;;;;;5036013;28;20442;-66
2021/09/24 09:51:33;;;;;;;6.73;5.73;;;48.00;14.80;;;;;;5035847;28;20932;-66
2021/09/24 09:54:00;;;;;;;6.60;5.30;;;48.10;15.50;;;;;;5035779;28;20529;-67
2021/09/24 09:56:39;;;;;;;6.03;5.53;;;49.30;15.40;;;;;;5035638;28;20476;-66
2021/09/24 09:59:28;;;;;;;13.73;5.33;;;50.20;14.50;;;;;;5035662;28;20441;-65
2021/09/24 10:02:11;;;;;;;6.13;5.30;;;51.30;14.40;;;;;;5030077;28;20446;-65
2021/09/24 10:04:39;;;;;;;7.30;5.80;;;51.80;13.40;;;;;;5034152;28;20449;-65
2021/09/24 10:07:12;;;;;;;6.20;5.63;;;52.50;12.20;;;;;;5035282;28;20505;-65
2021/09/24 10:09:39;;;;;;;6.53;5.93;;;51.10;12.10;;;;;;5034833;28;20434;-64
2021/09/24 10:12:19;;;;;;;6.53;5.50;;;48.60;13.80;;;;;;5035323;28;20495;-66
2021/09/24 10:14:46;;;;;;;5.83;4.70;;;48.20;14.60;;;;;;5035136;28;20532;-64
2021/09/24 10:17:14;;;;;;;5.40;5.00;;;49.30;14.10;;;;;;5035053;28;20576;-64
2021/09/24 10:19:43;;;;;;;8.40;5.73;;;49.40;13.50;;;;;;5041127;28;21001;-64
2021/09/24 10:22:11;;;;;;;5.97;5.47;;;50.10;13.80;;;;;;5052888;28;20437;-65
2021/09/24 10:24:38;;;;;;;5.27;4.77;;;51.50;12.80;;;;;;5054847;28;20799;-65
2021/09/24 10:27:09;;;;;;;6.97;5.30;;;52.80;12.90;;;;;;5043156;28;20529;-65
2021/09/24 10:29:44;;;;;;;6.07;5.23;;;53.70;12.10;;;;;;5045642;28;20531;-65
2021/09/24 10:32:18;;;;;;;5.67;5.17;;;53.80;11.40;;;;;;5054662;28;20439;-65
2021/09/24 10:34:55;;;;;;;6.53;5.67;;;54.00;11.70;;;;;;5054421;28;20508;-65
2021/09/24 10:37:24;;;;;;;5.33;4.83;;;54.50;11.30;;;;;;5043518;28;20508;-66
2021/09/24 10:39:58;;;;;;;5.30;4.80;;;54.90;11.50;;;;;;5035082;28;20441;-66
2021/09/24 10:42:47;;;;;;;6.03;5.53;;;55.50;10.90;;;;;;5034958;28;20453;-65
2021/09/24 10:45:31;;;;;;;6.07;5.57;;;55.70;10.20;;;;;;5033689;28;20442;-65
2021/09/24 10:48:16;;;;;;;5.80;5.30;;;56.00;10.10;;;;;;5049718;28;20433;-67
2021/09/24 10:50:53;;;;;;;5.80;5.20;;;56.30;10.30;;;;;;5054511;28;20436;-66
2021/09/24 10:53:23;;;;;;;6.53;5.00;;;56.50;10.00;;;;;;5054896;28;20442;-68
2021/09/24 10:56:27;;;;;;;4.50;4.10;;;56.80;9.90;;;;;;5051788;28;20489;-66
2021/09/24 10:58:54;;;;;;;7.30;5.93;;;56.80;10.10;;;;;;5054643;28;20801;-66
2021/09/24 11:01:39;;;;;;;5.37;4.90;;;56.90;9.60;;;;;;5054349;28;20783;-66
2021/09/24 11:04:12;;;;;;;4.77;4.20;;;57.20;10.20;;;;;;5054291;28;20429;-66
2021/09/24 11:06:42;;;;;;;5.43;4.93;;;57.20;10.00;;;;;;5054471;28;20437;-65
2021/09/24 11:09:12;;;;;;;5.53;4.93;;;57.70;9.90;;;;;;5054206;28;20524;-66
2021/09/24 11:11:40;;;;;;;5.30;4.33;;;57.80;9.80;;;;;;5054203;28;20911;-65
2021/09/24 11:14:26;;;;;;;5.03;4.53;;;57.70;9.30;;;;;;5054335;28;20433;-66
2021/09/24 11:16:54;;;;;;;9.30;4.50;;;57.50;9.60;;;;;;5053421;28;21009;-66
2021/09/24 11:19:40;;;;;;;5.17;4.70;;;57.80;9.70;;;;;;5054082;28;20535;-66
2021/09/24 11:22:36;;;;;;;5.53;5.03;;;57.90;9.40;;;;;;5054050;28;20516;-66
2021/09/24 11:25:11;;;;;;;5.80;5.00;;;58.40;9.50;;;;;;5054052;28;20527;-66
2021/09/24 11:27:41;;;;;;;5.13;4.63;;;58.70;9.20;;;;;;5054098;28;20827;-67
2021/09/24 11:30:17;;;;;;;6.80;4.80;;;58.80;9.00;;;;;;5054013;28;20523;-66
2021/09/24 11:32:46;;;;;;;5.27;4.87;;;58.70;8.80;;;;;;5053829;28;20433;-66
2021/09/24 11:35:16;;;;;;;5.20;4.80;;;58.60;8.80;;;;;;5053920;28;20451;-66
2021/09/24 11:38:19;;;;;;;5.50;5.10;;;58.50;8.80;;;;;;5131040;27;20547;-67
2021/09/24 11:40:53;;;;;;;5.10;4.70;;;58.20;8.80;;;;;;5131526;28;20440;-67
2021/09/24 11:43:25;;;;;;;6.63;4.87;;;57.00;9.10;;;;;;5131323;28;20807;-67
2021/09/24 11:45:52;;;;;;;4.60;4.20;;;56.80;9.80;;;;;;5131408;28;20754;-68
2021/09/24 11:48:29;;;;;;;6.80;4.57;;;57.00;9.80;;;;;;5131270;28;20437;-67
2021/09/24 11:50:56;;;;;;;5.00;4.63;;;57.10;9.80;;;;;;5131480;28;20433;-67
2021/09/24 11:53:24;;;;;;;5.87;5.27;;;56.70;9.90;;;;;;5131204;28;20433;-67
2021/09/24 11:55:51;;;;;;;5.30;4.80;;;56.80;9.90;;;;;;5131017;28;20520;-67
2021/09/24 11:58:24;;;;;;;5.27;4.83;;;56.70;9.60;;;;;;5131204;28;20912;-67
2021/09/24 12:00:52;;;;;;;6.37;5.80;;;56.80;9.70;;;;;;5131214;28;20439;-67
2021/09/24 12:03:22;;;;;;;5.60;5.10;;;57.00;9.50;;;;;;5131103;28;20540;-67
2021/09/24 12:05:56;;;;;;;4.80;4.40;;;57.00;9.90;;;;;;5131229;28;20477;-67
2021/09/24 12:08:26;;;;;;;5.50;5.00;;;57.00;9.60;;;;;;5130884;28;20469;-65
2021/09/24 12:11:04;;;;;;;4.83;4.43;;;56.40;9.60;;;;;;5130505;28;20541;-69
2021/09/24 12:13:41;;;;;;;5.43;4.93;;;56.10;10.10;;;;;;5130505;28;20437;-66
2021/09/24 12:16:09;;;;;;;6.43;5.87;;;55.70;10.00;;;;;;5130334;28;20532;-67
2021/09/24 12:18:58;;;;;;;5.07;4.67;;;55.40;9.90;;;;;;5130821;28;20785;-67
2021/09/24 12:21:28;;;;;;;5.57;4.40;;;55.00;9.90;;;;;;5124587;28;20445;-67
2021/09/24 12:23:57;;;;;;;5.50;5.00;;;54.80;10.10;;;;;;5130757;28;20491;-68
2021/09/24 12:26:32;;;;;;;4.60;4.20;;;54.60;10.60;;;;;;5130641;28;20439;-67
2021/09/24 12:29:03;;;;;;;5.90;5.37;;;54.50;10.70;;;;;;5130136;28;20515;-67
2021/09/24 12:31:42;;;;;;;5.40;4.90;;;54.40;11.10;;;;;;5130338;28;20512;-67
2021/09/24 12:34:12;;;;;;;4.57;4.10;;;54.20;10.50;;;;;;5130441;28;20928;-67
2021/09/24 12:37:02;;;;;;;7.07;4.73;;;53.90;11.20;;;;;;5129727;28;20485;-66
2021/09/24 12:39:32;;;;;;;8.60;4.60;;;53.50;10.60;;;;;;5130429;28;20445;-67
2021/09/24 12:42:03;;;;;;;6.03;5.10;;;52.90;11.50;;;;;;5130217;28;20448;-69
2021/09/24 12:44:30;;;;;;;5.23;4.83;;;52.60;11.40;;;;;;5130296;28;20476;-67
2021/09/24 12:46:58;;;;;;;5.23;4.70;;;52.20;11.50;;;;;;5129707;28;20900;-67
2021/09/24 12:49:27;;;;;;;5.00;4.60;;;51.70;12.30;;;;;;5115942;28;20840;-68
2021/09/24 12:51:55;;;;;;;5.57;4.37;;;51.10;12.20;;;;;;5116355;28;20481;-66
2021/09/24 12:54:23;;;;;;;5.10;4.63;;;50.20;12.90;;;;;;5116340;28;20517;-66
2021/09/24 12:56:51;;;;;;;5.30;4.80;;;49.00;12.90;;;;;;5116148;28;20568;-66
2021/09/24 12:59:19;;;;;;;4.43;4.03;;;47.70;13.80;;;;;;5115790;28;20593;-67
2021/09/24 13:01:49;;;;;;;3.90;3.60;;;46.50;14.40;;;;;;5116264;28;20517;-66